createdAt,value
2019-05-03T00:02:27.894Z,1.45
2019-05-03T00:05:21.965Z,1.52
2019-05-03T00:07:56.039Z,1.20
2019-05-03T00:10:28.144Z,1.17
2019-05-03T00:13:01.758Z,1.07
2019-05-03T00:16:12.102Z,1.00
2019-05-03T00:18:43.665Z,0.95
2019-05-03T00:21:15.205Z,1.00
2019-05-03T00:23:46.597Z,0.70
2019-05-03T00:26:18.064Z,1.00
2019-05-03T00:28:49.390Z,1.10
2019-05-03T00:31:22.565Z,0.90
2019-05-03T00:33:58.127Z,1.00
2019-05-03T00:36:52.530Z,0.75
2019-05-03T00:39:29.701Z,0.93
2019-05-03T00:42:02.730Z,0.80
2019-05-03T00:44:34.261Z,0.70
2019-05-03T00:47:05.952Z,1.10
2019-05-03T00:49:37.839Z,0.68
2019-05-03T00:52:09.182Z,0.70
2019-05-03T00:54:42.364Z,0.80
2019-05-03T00:57:14.501Z,0.82
2019-05-03T00:59:46.201Z,0.70
2019-05-03T01:02:18.023Z,0.95
2019-05-03T01:04:49.341Z,0.90
2019-05-03T01:07:22.247Z,1.10
2019-05-03T01:09:53.754Z,0.90
2019-05-03T01:12:25.365Z,0.90
2019-05-03T01:14:59.113Z,1.05
2019-05-03T01:17:32.015Z,0.88
2019-05-03T01:20:03.395Z,1.00
2019-05-03T01:22:34.977Z,0.80
2019-05-03T01:25:07.001Z,0.80
2019-05-03T01:27:38.410Z,0.90
2019-05-03T01:30:11.923Z,0.68
2019-05-03T01:32:43.503Z,0.80
2019-05-03T01:35:14.787Z,0.95
2019-05-03T01:37:46.605Z,0.85
2019-05-03T01:40:18.837Z,0.75
2019-05-03T01:42:51.844Z,0.82
2019-05-03T01:45:23.642Z,0.70
2019-05-03T01:48:04.031Z,1.00
2019-05-03T01:50:44.864Z,1.00
2019-05-03T01:53:18.158Z,0.75
2019-05-03T01:58:24.575Z,0.80
2019-05-03T02:01:17.866Z,0.98
2019-05-03T02:03:56.458Z,0.90
2019-05-03T02:06:28.080Z,1.10
2019-05-03T02:09:01.509Z,0.90
2019-05-03T02:11:34.652Z,0.80
2019-05-03T02:14:06.658Z,1.12
2019-05-03T02:16:38.477Z,1.30
2019-05-03T02:19:09.917Z,1.07
2019-05-03T02:21:41.671Z,1.27
2019-05-03T02:24:14.204Z,1.00
2019-05-03T02:26:45.573Z,1.00
2019-05-03T02:29:16.974Z,1.10
2019-05-03T02:31:48.642Z,1.22
2019-05-03T02:34:23.688Z,1.20
2019-05-03T02:39:25.834Z,1.22
2019-05-03T02:42:03.046Z,1.37
2019-05-03T02:44:30.691Z,1.20
2019-05-03T02:47:20.891Z,1.07
2019-05-03T02:49:57.145Z,1.10
2019-05-03T02:52:36.486Z,1.05
2019-05-03T02:55:09.593Z,1.05
2019-05-03T03:00:16.358Z,1.20
2019-05-03T03:02:47.633Z,1.10
2019-05-03T03:05:19.262Z,1.10
2019-05-03T03:07:52.366Z,1.07
2019-05-03T03:10:26.309Z,1.12
2019-05-03T03:13:00.027Z,0.70
2019-05-03T03:15:36.262Z,0.80
2019-05-03T03:18:09.900Z,0.85
2019-05-03T03:20:44.973Z,1.00
2019-05-03T03:23:19.291Z,0.90
2019-05-03T03:25:55.614Z,0.88
2019-05-03T03:28:27.894Z,1.20
2019-05-03T03:31:28.234Z,1.10
2019-05-03T03:33:59.821Z,0.98
2019-05-03T03:36:50.288Z,1.07
2019-05-03T03:39:06.990Z,1.22
2019-05-03T03:44:36.519Z,1.00
2019-05-03T03:47:11.458Z,1.20
2019-05-03T03:49:47.366Z,0.98
2019-05-03T03:52:21.065Z,1.10
2019-05-03T03:54:55.521Z,1.10
2019-05-03T03:57:28.938Z,1.00
2019-05-03T04:02:31.603Z,1.20
2019-05-03T04:05:05.509Z,1.72
2019-05-03T04:07:36.614Z,1.15
2019-05-03T04:10:09.669Z,1.47
2019-05-03T04:12:45.463Z,1.40
2019-05-03T04:15:36.679Z,1.70
2019-05-03T04:18:31.371Z,1.70
2019-05-03T04:21:05.393Z,1.30
2019-05-03T04:23:36.134Z,2.22
2019-05-03T04:26:08.549Z,1.55
2019-05-03T04:28:40.558Z,2.33
2019-05-03T04:31:12.196Z,2.50
2019-05-03T04:33:45.071Z,2.20
2019-05-03T04:36:16.749Z,2.27
2019-05-03T04:38:48.570Z,3.00
2019-05-03T04:41:19.877Z,2.45
2019-05-03T04:43:51.211Z,3.12
2019-05-03T04:46:26.025Z,2.58
2019-05-03T04:48:57.732Z,3.47
2019-05-03T04:51:29.772Z,3.47
2019-05-03T04:54:38.367Z,2.85
2019-05-03T04:57:10.241Z,4.15
2019-05-03T04:59:41.611Z,3.92
2019-05-03T05:02:15.689Z,4.08
2019-05-03T05:04:46.579Z,4.65
2019-05-03T05:07:19.272Z,4.25
2019-05-03T05:09:50.748Z,4.30
2019-05-03T05:12:25.159Z,3.47
2019-05-03T05:14:56.706Z,4.53
2019-05-03T05:17:56.287Z,4.37
2019-05-03T05:20:50.180Z,4.95
2019-05-03T05:23:22.191Z,4.60
2019-05-03T05:25:59.997Z,4.58
2019-05-03T05:28:41.403Z,4.87
2019-05-03T05:31:15.014Z,3.77
2019-05-03T05:33:45.909Z,4.12
2019-05-03T05:36:17.272Z,4.37
2019-05-03T05:38:48.752Z,5.15
2019-05-03T05:41:20.070Z,18.90
2019-05-03T05:43:51.361Z,8.53
2019-05-03T05:46:24.905Z,4.92
2019-05-03T05:48:58.188Z,5.95
2019-05-03T05:51:29.651Z,5.90
2019-05-03T05:54:01.267Z,7.22
2019-05-03T06:01:05.903Z,7.20
2019-05-03T06:03:44.917Z,6.60
2019-05-03T06:06:28.744Z,6.75
2019-05-03T06:09:20.901Z,6.47
2019-05-03T06:11:59.316Z,6.42
2019-05-03T06:14:39.165Z,5.30
2019-05-03T06:17:32.228Z,6.03
2019-05-03T06:20:58.245Z,6.35
2019-05-03T09:54:19.620Z,5.33
2019-05-03T09:56:58.769Z,5.55
2019-05-03T09:59:31.060Z,5.15
2019-05-03T10:02:12.168Z,4.87
2019-05-03T10:04:44.626Z,4.10
2019-05-03T10:07:20.724Z,4.28
2019-05-03T10:09:55.213Z,7.67
2019-05-03T10:12:34.977Z,4.17
2019-05-03T10:15:18.174Z,5.50
2019-05-03T10:18:08.666Z,4.62
2019-05-03T10:20:39.967Z,5.10
2019-05-03T10:23:32.697Z,3.58
2019-05-03T10:26:06.201Z,4.53
2019-05-03T10:28:41.145Z,3.87
2019-05-03T10:31:13.240Z,4.05
2019-05-03T10:33:49.444Z,3.35
2019-05-03T10:36:21.289Z,3.27
2019-05-03T10:38:55.209Z,2.70
2019-05-03T10:41:28.477Z,3.00
2019-05-03T10:44:01.636Z,2.95
2019-05-03T10:46:35.322Z,3.60
2019-05-03T10:49:10.069Z,3.55
2019-05-03T10:51:46.980Z,2.80
2019-05-03T10:54:23.108Z,2.58
2019-05-03T10:57:15.945Z,3.15
2019-05-03T10:59:52.832Z,4.22
2019-05-03T11:05:50.065Z,4.62
2019-05-03T11:08:24.156Z,3.60
2019-05-03T11:10:58.278Z,3.15
2019-05-03T11:13:34.861Z,3.50
2019-05-03T11:16:11.600Z,3.45
2019-05-03T11:18:45.556Z,3.33
2019-05-03T11:21:30.909Z,2.77
2019-05-03T11:24:10.599Z,3.25
2019-05-03T11:26:55.674Z,2.70
2019-05-03T11:29:47.449Z,2.90
2019-05-03T11:32:38.128Z,2.90
2019-05-03T11:36:17.046Z,1.95
2019-05-03T11:40:00.085Z,2.35
2019-05-03T11:46:32.336Z,1.65
2019-05-03T11:49:05.646Z,1.50
2019-05-03T11:51:41.942Z,1.50
2019-05-03T11:54:18.900Z,2.35
2019-05-03T11:57:00.991Z,2.30
2019-05-03T11:59:40.764Z,2.80
2019-05-03T12:03:00.091Z,2.45
2019-05-03T12:05:35.167Z,3.02
2019-05-03T12:08:17.588Z,3.10
2019-05-03T12:11:00.606Z,3.00
2019-05-03T12:13:46.988Z,3.08
2019-05-03T12:17:10.374Z,3.33
2019-05-03T12:19:16.902Z,3.50
2019-05-03T12:22:10.447Z,3.40
2019-05-03T12:24:54.829Z,3.98
2019-05-03T12:27:38.069Z,3.87
2019-05-03T12:31:24.362Z,3.42
2019-05-03T12:34:00.585Z,3.72
2019-05-03T12:36:59.918Z,4.65
2019-05-03T12:40:28.203Z,6.35
2019-05-03T12:43:10.016Z,7.55
2019-05-03T12:45:50.034Z,7.72
2019-05-03T12:48:18.371Z,7.00
2019-05-03T12:51:15.184Z,5.47
2019-05-03T12:53:49.450Z,7.45
2019-05-03T12:56:32.819Z,9.85
2019-05-03T12:59:35.950Z,9.95
2019-05-03T13:02:18.958Z,8.70
2019-05-03T13:04:52.389Z,9.55
2019-05-03T13:07:38.313Z,8.13
2019-05-03T13:10:09.485Z,7.62
2019-05-03T13:12:53.164Z,8.63
2019-05-03T13:15:24.551Z,7.30
2019-05-03T13:17:56.173Z,7.55
2019-05-03T13:20:29.835Z,7.08
2019-05-03T13:23:12.923Z,6.03
2019-05-03T13:25:54.973Z,4.95
2019-05-03T13:28:32.643Z,4.65
2019-05-03T13:31:08.383Z,3.83
2019-05-03T13:33:45.314Z,3.50
2019-05-03T13:38:50.831Z,3.40
2019-05-03T13:42:13.070Z,3.15
2019-05-03T13:44:44.911Z,3.52
2019-05-03T13:48:05.438Z,2.95
2019-05-03T13:50:52.440Z,3.67
2019-05-03T13:53:36.223Z,6.00
2019-05-03T13:56:43.182Z,4.33
2019-05-03T13:59:22.099Z,3.80
2019-05-03T14:02:11.215Z,4.03
2019-05-03T14:04:49.333Z,4.37
2019-05-03T14:07:15.198Z,4.10
2019-05-03T14:09:55.693Z,4.85
2019-05-03T14:12:32.198Z,5.25
2019-05-03T14:15:20.006Z,6.58
2019-05-03T14:17:56.581Z,6.62
2019-05-03T14:21:00.575Z,7.80
2019-05-03T14:23:58.925Z,7.00
2019-05-03T14:26:35.801Z,6.25
2019-05-03T14:29:10.210Z,5.78
2019-05-03T14:31:45.389Z,7.37
2019-05-03T14:34:25.717Z,6.60
2019-05-03T14:37:16.647Z,7.08
2019-05-03T14:40:01.102Z,8.43
2019-05-03T14:42:44.715Z,7.17
2019-05-03T14:45:05.638Z,7.22
2019-05-03T14:47:39.830Z,6.75
2019-05-03T14:50:15.057Z,6.65
2019-05-03T14:52:58.671Z,6.95
2019-05-03T14:55:45.140Z,6.10
2019-05-03T14:58:41.331Z,6.58
2019-05-03T15:01:28.768Z,6.40
2019-05-03T15:04:05.827Z,6.47
2019-05-03T15:06:52.313Z,8.73
2019-05-03T15:09:25.096Z,9.98
2019-05-03T15:11:58.413Z,6.17
2019-05-03T15:14:34.662Z,5.67
2019-05-03T15:17:10.476Z,6.53
2019-05-03T15:19:55.291Z,5.83
2019-05-03T15:22:28.317Z,6.12
2019-05-03T15:25:04.977Z,7.90
2019-05-03T15:27:37.037Z,6.85
2019-05-03T15:30:12.482Z,6.47
2019-05-03T15:32:57.624Z,6.03
2019-05-03T15:35:50.220Z,6.45
2019-05-03T15:38:30.391Z,5.80
2019-05-03T15:41:05.744Z,5.12
2019-05-03T15:44:01.567Z,6.53
2019-05-03T15:47:09.879Z,6.17
2019-05-03T15:49:44.675Z,6.40
2019-05-03T15:52:20.390Z,5.90
2019-05-03T15:55:09.581Z,5.78
2019-05-03T15:57:47.328Z,5.75
2019-05-03T16:00:19.819Z,5.80
2019-05-03T16:02:52.034Z,6.70
2019-05-03T16:05:25.135Z,6.40
2019-05-03T16:07:58.637Z,5.92
2019-05-03T16:10:30.336Z,6.50
2019-05-03T16:13:02.233Z,6.35
2019-05-03T16:15:35.765Z,7.05
2019-05-03T16:18:07.522Z,6.80
2019-05-03T16:20:39.593Z,6.20
2019-05-03T16:23:15.435Z,5.40
2019-05-03T16:25:47.533Z,5.40
2019-05-03T16:28:33.275Z,6.62
2019-05-03T16:31:08.471Z,7.08
2019-05-03T16:33:40.496Z,6.05
2019-05-03T16:36:14.743Z,6.80
2019-05-03T16:38:52.766Z,7.10
2019-05-03T16:41:26.567Z,6.85
2019-05-03T16:43:59.066Z,7.28
2019-05-03T16:46:31.460Z,6.12
2019-05-03T16:49:04.525Z,5.92
2019-05-03T16:51:38.329Z,7.15
2019-05-03T16:54:10.218Z,6.78
2019-05-03T16:56:41.922Z,7.58
2019-05-03T16:59:14.820Z,18.07
2019-05-03T17:01:47.757Z,11.73
2019-05-03T17:04:36.707Z,7.35
2019-05-03T17:07:27.509Z,26.40
2019-05-03T17:10:27.687Z,42.65
2019-05-03T17:13:00.989Z,48.52
2019-05-03T17:15:35.221Z,34.73
2019-05-03T17:18:09.122Z,40.55
2019-05-03T17:20:45.577Z,9.95
2019-05-03T17:23:21.762Z,18.50
2019-05-03T17:25:54.562Z,7.78
2019-05-03T17:28:28.815Z,14.63
2019-05-03T17:31:04.511Z,12.43
2019-05-03T17:33:36.626Z,12.37
2019-05-03T17:36:08.472Z,8.63
2019-05-03T17:38:40.375Z,8.80
2019-05-03T17:41:29.541Z,6.67
2019-05-03T17:44:05.871Z,8.00
2019-05-03T17:46:38.039Z,6.75
2019-05-03T17:49:14.720Z,7.65
2019-05-03T17:52:22.860Z,6.65
2019-05-03T17:55:15.270Z,6.95
2019-05-03T17:58:00.736Z,7.62
2019-05-03T18:01:09.512Z,7.37
2019-05-03T18:03:45.833Z,7.28
2019-05-03T18:06:28.824Z,6.58
2019-05-03T18:09:34.569Z,7.58
2019-05-03T18:12:16.129Z,7.87
2019-05-03T18:14:48.360Z,6.58
2019-05-03T18:17:20.519Z,6.55
2019-05-03T18:19:55.201Z,7.80
2019-05-03T18:22:26.717Z,7.12
2019-05-03T18:24:58.676Z,6.70
2019-05-03T18:27:31.958Z,7.03
2019-05-03T18:30:08.068Z,7.28
2019-05-03T18:32:40.121Z,6.40
2019-05-03T18:35:12.501Z,7.90
2019-05-03T18:38:07.686Z,6.90
2019-05-03T18:40:46.577Z,8.38
2019-05-03T18:43:25.927Z,7.72
2019-05-03T18:46:22.835Z,9.15
2019-05-03T18:48:56.537Z,8.55
2019-05-03T18:51:28.860Z,7.72
2019-05-03T18:54:00.616Z,8.20
2019-05-03T18:56:34.675Z,7.97
2019-05-03T18:59:17.801Z,41.58
2019-05-03T19:01:59.404Z,32.05
2019-05-03T19:05:05.083Z,35.98
2019-05-03T19:08:46.857Z,42.00
2019-05-03T19:11:49.609Z,50.55
2019-05-03T19:14:27.846Z,39.05
2019-05-03T19:17:28.093Z,33.75
2019-05-03T19:20:55.111Z,24.12
2019-05-03T19:23:31.595Z,10.83
2019-05-03T19:26:46.252Z,13.13
2019-05-03T19:29:44.805Z,11.25
2019-05-03T19:34:54.736Z,10.68
2019-05-03T19:35:29.598Z,10.53
2019-05-03T19:38:05.920Z,9.80
2019-05-03T19:41:16.281Z,11.05
2019-05-03T19:43:51.823Z,10.58
2019-05-03T19:46:35.081Z,10.20
2019-05-03T19:49:08.891Z,9.83
2019-05-03T19:51:45.155Z,9.58
2019-05-03T19:54:21.603Z,10.38
2019-05-03T19:56:58.757Z,10.63
2019-05-03T19:59:56.794Z,9.10
2019-05-03T20:02:47.021Z,10.18
2019-05-03T20:05:44.872Z,9.00
2019-05-03T20:08:37.241Z,9.63
2019-05-03T20:11:17.347Z,8.68
2019-05-03T20:14:14.775Z,8.48
2019-05-03T20:16:42.316Z,8.40
2019-05-03T20:19:22.313Z,16.73
2019-05-03T20:22:06.820Z,9.33
2019-05-03T20:25:38.693Z,8.50
2019-05-03T20:27:39.138Z,9.28
2019-05-03T20:30:21.528Z,8.53
2019-05-03T20:32:55.658Z,7.90
2019-05-03T20:35:37.844Z,7.90
2019-05-03T20:38:11.673Z,9.50
2019-05-03T20:40:57.129Z,7.80
2019-05-03T20:43:36.607Z,8.13
2019-05-03T20:46:42.126Z,7.65
2019-05-03T20:49:16.731Z,10.20
2019-05-03T20:51:54.498Z,8.55
2019-05-03T20:54:55.330Z,8.45
2019-05-03T20:57:33.001Z,17.60
2019-05-03T21:00:25.642Z,8.55
2019-05-03T21:03:15.319Z,8.40
2019-05-03T21:09:45.700Z,8.65
2019-05-03T21:18:58.566Z,7.90
2019-05-03T21:21:39.028Z,7.87
2019-05-03T21:24:47.157Z,8.63
2019-05-03T21:27:20.812Z,8.23
2019-05-03T21:30:15.139Z,8.70
2019-05-03T21:32:48.739Z,8.83
2019-05-03T21:35:25.091Z,7.85
2019-05-03T21:40:54.672Z,8.38
2019-05-03T21:43:31.055Z,8.15
2019-05-03T21:46:21.695Z,7.87
2019-05-03T21:49:12.169Z,8.88
2019-05-03T21:51:53.922Z,9.10
2019-05-03T21:54:50.971Z,8.83
2019-05-03T21:57:31.087Z,8.78
2019-05-03T22:00:17.669Z,9.35
2019-05-03T22:03:00.275Z,8.03
2019-05-03T22:05:37.659Z,10.53
2019-05-03T22:08:15.050Z,9.78
2019-05-03T22:10:50.956Z,9.90
2019-05-03T22:13:24.580Z,8.78
2019-05-03T22:16:01.951Z,9.10
2019-05-03T22:18:38.649Z,8.73
2019-05-03T22:21:34.631Z,9.30
2019-05-03T22:24:32.131Z,8.00
2019-05-03T22:27:15.375Z,7.83
2019-05-03T22:29:54.536Z,8.63
2019-05-03T22:32:30.951Z,8.43
2019-05-03T22:35:15.587Z,8.60
2019-05-03T22:37:44.863Z,8.43
2019-05-03T22:40:19.691Z,8.45
2019-05-03T22:42:57.495Z,8.60
2019-05-03T22:45:49.916Z,8.13
2019-05-03T22:48:25.230Z,8.43
2019-05-03T22:51:00.666Z,8.58
2019-05-03T22:53:44.869Z,8.83
2019-05-03T22:56:21.217Z,9.40
2019-05-03T22:58:56.636Z,10.00
2019-05-03T23:01:35.645Z,8.68
2019-05-03T23:04:09.761Z,8.90
2019-05-03T23:06:47.133Z,9.33
2019-05-03T23:09:19.241Z,8.50
2019-05-03T23:11:55.432Z,8.53
2019-05-03T23:14:49.060Z,9.68
2019-05-03T23:17:27.161Z,9.63
2019-05-03T23:20:07.080Z,9.25
2019-05-03T23:22:42.841Z,8.28
2019-05-03T23:25:25.436Z,9.83
2019-05-03T23:28:00.811Z,9.78
2019-05-03T23:30:37.093Z,8.88
2019-05-03T23:33:48.799Z,8.70
2019-05-03T23:36:36.282Z,9.00
2019-05-03T23:40:01.890Z,8.13
2019-05-03T23:42:38.234Z,8.50
2019-05-03T23:45:12.070Z,10.00
2019-05-03T23:47:52.326Z,9.40
2019-05-03T23:50:29.995Z,9.23
2019-05-03T23:53:40.484Z,9.15
2019-05-03T23:56:16.213Z,9.45
